createdAt,value
2022-12-31T00:00:15.731Z,100524.53
2022-12-31T00:03:05.723Z,100533.25
2022-12-31T00:05:37.198Z,100524.47
2022-12-31T00:08:08.003Z,100519.22
2022-12-31T00:10:41.845Z,100521.81
2022-12-31T00:13:12.233Z,100523.56
2022-12-31T00:15:44.369Z,100527.06
2022-12-31T00:18:14.062Z,100524.41
2022-12-31T00:20:44.203Z,100512.16
2022-12-31T00:23:14.081Z,100511.31
2022-12-31T00:25:44.137Z,100518.34
2022-12-31T00:28:13.884Z,100517.47
2022-12-31T00:30:45.499Z,100501.78
2022-12-31T00:33:15.201Z,100514.91
2022-12-31T00:35:45.473Z,100507.91
2022-12-31T00:38:15.184Z,100497.41
2022-12-31T00:40:45.294Z,100501.78
2022-12-31T00:43:14.926Z,100507.06
2022-12-31T00:45:46.463Z,100508.78
2022-12-31T00:48:16.074Z,100515.78
2022-12-31T00:50:46.654Z,100519.31
2022-12-31T00:53:16.426Z,100520.19
2022-12-31T00:55:46.507Z,100525.44
2022-12-31T00:58:16.134Z,100530.69
2022-12-31T01:00:47.893Z,100515.81
2022-12-31T01:03:17.674Z,100517.59
2022-12-31T01:05:47.714Z,100516.75
2022-12-31T01:08:17.461Z,100508.91
2022-12-31T01:11:07.323Z,100505.44
2022-12-31T01:13:37.056Z,100511.56
2022-12-31T01:16:12.383Z,100508.06
2022-12-31T01:18:42.412Z,100503.69
2022-12-31T01:21:13.357Z,100484.38
2022-12-31T01:23:42.963Z,100483.53
2022-12-31T01:26:14.732Z,100493.19
2022-12-31T01:28:44.664Z,100492.31
2022-12-31T01:31:17.226Z,100494.97
2022-12-31T01:33:47.502Z,100500.22
2022-12-31T01:36:23.532Z,100488.78
2022-12-31T01:38:55.053Z,100487.94
2022-12-31T01:41:25.816Z,100482.69
2022-12-31T01:43:57.052Z,100483.59
2022-12-31T01:46:30.664Z,100488.00
2022-12-31T01:49:01.944Z,100488.00
2022-12-31T01:51:33.168Z,100473.13
2022-12-31T01:54:03.543Z,100480.13
2022-12-31T01:56:34.436Z,100474.00
2022-12-31T01:59:07.045Z,100478.41
2022-12-31T02:01:39.474Z,100480.19
2022-12-31T02:04:10.944Z,100481.06
2022-12-31T02:06:51.504Z,100466.97
2022-12-31T02:09:21.715Z,100475.75
2022-12-31T02:11:52.069Z,100475.78
2022-12-31T02:14:23.164Z,100475.78
2022-12-31T02:16:58.826Z,100477.53
2022-12-31T02:19:49.283Z,100477.53
2022-12-31T02:22:24.428Z,100473.16
2022-12-31T02:25:06.178Z,100449.44
2022-12-31T02:27:42.863Z,100443.31
2022-12-31T02:30:15.735Z,100435.38
2022-12-31T02:33:02.633Z,100441.53
2022-12-31T02:35:39.053Z,100434.53
2022-12-31T02:38:12.831Z,100435.41
2022-12-31T02:40:42.752Z,100437.13
2022-12-31T02:43:12.791Z,100445.06
2022-12-31T02:45:46.865Z,100438.91
2022-12-31T02:48:42.751Z,100432.78
2022-12-31T02:51:27.788Z,100438.94
2022-12-31T02:54:03.135Z,100436.28
2022-12-31T02:56:38.058Z,100440.69
2022-12-31T02:59:27.318Z,100439.78
2022-12-31T03:02:19.873Z,100443.31
2022-12-31T03:04:52.294Z,100445.06
2022-12-31T03:07:23.707Z,100433.66
2022-12-31T03:09:53.724Z,100444.19
2022-12-31T03:12:42.647Z,100445.94
2022-12-31T03:15:21.625Z,100439.81
2022-12-31T03:17:57.041Z,100426.66
2022-12-31T03:20:46.722Z,100414.34
2022-12-31T03:23:19.934Z,100428.41
2022-12-31T03:25:49.297Z,100423.16
2022-12-31T03:28:20.329Z,100423.16
2022-12-31T03:30:52.616Z,100450.41
2022-12-31T03:33:23.933Z,100435.44
2022-12-31T03:35:54.408Z,100426.66
2022-12-31T03:38:24.294Z,100433.63
2022-12-31T03:40:54.777Z,100446.78
2022-12-31T03:43:24.496Z,100445.91
2022-12-31T03:45:55.242Z,100453.84
2022-12-31T03:48:26.580Z,100456.47
2022-12-31T03:50:56.731Z,100449.41
2022-12-31T03:53:26.502Z,100467.88
2022-12-31T03:55:57.112Z,100445.94
2022-12-31T03:58:26.864Z,100462.63
2022-12-31T04:00:57.204Z,100460.00
2022-12-31T04:03:29.131Z,100476.69
2022-12-31T04:05:59.154Z,100476.69
2022-12-31T04:08:28.865Z,100463.50
2022-12-31T04:10:58.898Z,100472.28
2022-12-31T04:13:28.663Z,100466.16
2022-12-31T04:15:58.725Z,100469.69
2022-12-31T04:18:30.834Z,100476.69
2022-12-31T04:21:02.993Z,100476.72
2022-12-31T04:23:32.636Z,100466.16
2022-12-31T04:26:02.723Z,100468.78
2022-12-31T04:28:32.355Z,100467.97
2022-12-31T04:31:04.726Z,100467.94
2022-12-31T04:33:35.948Z,100458.31
2022-12-31T04:36:07.190Z,100459.19
2022-12-31T04:38:36.824Z,100446.91
2022-12-31T04:41:21.243Z,100450.41
2022-12-31T04:43:51.514Z,100456.53
2022-12-31T04:46:22.876Z,100461.81
2022-12-31T04:48:54.197Z,100482.91
2022-12-31T04:51:25.076Z,100475.88
2022-12-31T04:53:54.987Z,100490.81
2022-12-31T04:56:25.371Z,100484.66
2022-12-31T04:58:55.210Z,100479.41
2022-12-31T05:01:25.700Z,100486.41
2022-12-31T05:03:56.925Z,100486.44
2022-12-31T05:06:26.939Z,100477.66
2022-12-31T05:08:56.679Z,100485.56
2022-12-31T05:11:26.791Z,100495.22
2022-12-31T05:13:56.447Z,100491.72
2022-12-31T05:16:28.564Z,100487.34
2022-12-31T05:18:59.684Z,100484.69
2022-12-31T05:21:31.717Z,100471.50
2022-12-31T05:24:01.387Z,100474.13
2022-12-31T05:26:31.456Z,100469.75
2022-12-31T05:29:01.836Z,100475.03
2022-12-31T05:31:32.137Z,100480.28
2022-12-31T05:34:03.203Z,100491.72
2022-12-31T05:36:33.276Z,100485.56
2022-12-31T05:39:02.965Z,100485.59
2022-12-31T05:41:32.929Z,100475.00
2022-12-31T05:44:02.655Z,100478.53
2022-12-31T05:46:32.546Z,100473.25
2022-12-31T05:49:03.716Z,100468.88
2022-12-31T05:51:33.827Z,100481.16
2022-12-31T05:54:03.494Z,100475.91
2022-12-31T05:56:34.172Z,100482.97
2022-12-31T05:59:03.971Z,100477.66
2022-12-31T06:01:34.276Z,100482.06
2022-12-31T06:04:06.363Z,100468.00
2022-12-31T06:06:37.635Z,100475.03
2022-12-31T06:09:07.274Z,100472.41
2022-12-31T06:11:37.445Z,100469.75
2022-12-31T06:14:07.196Z,100479.44
2022-12-31T06:16:37.511Z,100488.22
2022-12-31T06:19:08.702Z,100489.06
2022-12-31T06:21:39.405Z,100489.06
2022-12-31T06:24:10.238Z,100489.94
2022-12-31T06:26:40.792Z,100488.19
2022-12-31T06:29:10.743Z,100481.19
2022-12-31T06:31:40.635Z,100482.94
2022-12-31T06:34:12.760Z,100483.81
2022-12-31T06:36:42.835Z,100489.97
2022-12-31T06:39:12.561Z,100483.81
2022-12-31T06:41:42.639Z,100491.69
2022-12-31T06:44:12.497Z,100484.66
2022-12-31T06:46:42.722Z,100482.06
2022-12-31T06:49:14.195Z,100481.16
2022-12-31T06:51:46.383Z,100487.31
2022-12-31T06:54:16.448Z,100487.34
2022-12-31T06:56:46.824Z,100487.31
2022-12-31T06:59:24.553Z,100489.09
2022-12-31T07:02:02.929Z,100499.63
2022-12-31T07:04:46.251Z,100503.16
2022-12-31T07:07:18.638Z,100517.22
2022-12-31T07:09:54.835Z,100522.50
2022-12-31T07:12:33.047Z,100522.50
2022-12-31T07:15:06.683Z,100530.41
2022-12-31T07:17:40.097Z,100540.06
2022-12-31T07:20:14.345Z,100547.13
2022-12-31T07:22:44.846Z,100539.19
2022-12-31T07:25:15.128Z,100530.44
2022-12-31T07:27:51.981Z,100526.91
2022-12-31T07:30:22.851Z,100509.31
2022-12-31T07:33:03.376Z,100518.09
2022-12-31T07:35:38.530Z,100522.50
2022-12-31T07:38:14.334Z,100521.56
2022-12-31T07:40:54.011Z,100532.09
2022-12-31T07:43:27.896Z,100525.97
2022-12-31T07:46:02.069Z,100532.97
2022-12-31T07:48:32.911Z,100529.47
2022-12-31T07:51:04.925Z,100544.44
2022-12-31T07:53:35.196Z,100533.84
2022-12-31T07:56:06.352Z,100545.25
2022-12-31T07:58:51.145Z,100532.88
2022-12-31T08:01:29.377Z,100545.19
2022-12-31T08:04:03.115Z,100530.19
2022-12-31T08:06:38.521Z,100521.41
2022-12-31T08:09:13.694Z,100526.69
2022-12-31T08:11:50.663Z,100532.84
2022-12-31T08:14:21.427Z,100535.50
2022-12-31T08:16:52.708Z,100539.88
2022-12-31T08:19:26.930Z,100550.41
2022-12-31T08:22:08.207Z,100553.03
2022-12-31T08:24:42.744Z,100551.25
2022-12-31T08:27:17.495Z,100559.16
2022-12-31T08:29:51.507Z,100563.56
2022-12-31T08:32:23.874Z,100560.88
2022-12-31T08:34:59.957Z,100555.59
2022-12-31T08:37:37.655Z,100556.44
2022-12-31T08:40:23.318Z,100555.56
2022-12-31T08:43:05.162Z,100556.44
2022-12-31T08:45:39.431Z,100550.28
2022-12-31T08:48:18.365Z,100559.06
2022-12-31T08:50:49.574Z,100554.66
2022-12-31T08:53:21.565Z,100550.25
2022-12-31T08:55:54.975Z,100535.28
2022-12-31T08:58:33.876Z,100534.38
2022-12-31T09:01:05.729Z,100535.28
2022-12-31T09:03:44.613Z,100534.44
2022-12-31T09:06:20.994Z,100537.97
2022-12-31T09:08:55.701Z,100538.88
2022-12-31T09:11:30.936Z,100532.66
2022-12-31T09:14:20.990Z,100528.28
2022-12-31T09:16:57.928Z,100526.47
2022-12-31T09:19:28.160Z,100524.72
2022-12-31T09:21:59.314Z,100524.72
2022-12-31T09:24:31.606Z,100519.41
2022-12-31T09:27:08.305Z,100519.47
2022-12-31T09:29:50.556Z,100517.66
2022-12-31T09:32:25.089Z,100521.19
2022-12-31T09:34:57.102Z,100519.44
2022-12-31T09:37:35.246Z,100522.97
2022-12-31T09:40:22.416Z,100519.44
2022-12-31T09:43:01.492Z,100515.91
2022-12-31T09:45:52.134Z,100508.84
2022-12-31T09:48:43.219Z,100508.81
2022-12-31T09:51:30.961Z,100494.72
2022-12-31T09:54:18.281Z,100494.72
2022-12-31T09:56:57.167Z,100483.22
2022-12-31T09:59:35.045Z,100478.81
2022-12-31T10:02:18.252Z,100472.63
2022-12-31T10:05:14.436Z,100484.94
2022-12-31T10:07:52.821Z,100469.09
2022-12-31T10:10:25.434Z,100472.59
2022-12-31T10:13:11.692Z,100471.72
2022-12-31T10:16:11.647Z,100458.50
2022-12-31T10:18:51.865Z,100454.06
2022-12-31T10:21:30.018Z,100457.59
2022-12-31T10:24:14.395Z,100455.84
2022-12-31T10:26:53.563Z,100458.50
2022-12-31T10:29:27.341Z,100463.78
2022-12-31T10:32:07.606Z,100470.00
2022-12-31T10:34:54.209Z,100465.59
2022-12-31T10:37:30.927Z,100456.81
2022-12-31T10:40:12.613Z,100459.50
2022-12-31T10:43:00.478Z,100453.31
2022-12-31T10:45:50.168Z,100448.03
2022-12-31T10:48:38.952Z,100435.69
2022-12-31T10:51:23.957Z,100424.25
2022-12-31T10:54:14.523Z,100426.88
2022-12-31T10:57:07.378Z,100421.59
2022-12-31T10:59:53.187Z,100403.06
2022-12-31T11:02:37.813Z,100387.22
2022-12-31T11:05:27.126Z,100373.94
2022-12-31T11:08:04.467Z,100360.72
2022-12-31T11:10:52.407Z,100374.84
2022-12-31T11:13:36.014Z,100381.00
2022-12-31T11:16:22.139Z,100378.34
2022-12-31T11:19:00.996Z,100382.72
2022-12-31T11:21:41.988Z,100380.06
2022-12-31T11:24:22.375Z,100352.78
2022-12-31T11:26:59.770Z,100358.91
2022-12-31T11:29:40.407Z,100358.00
2022-12-31T11:32:19.391Z,100357.97
2022-12-31T11:35:12.947Z,100355.31
2022-12-31T11:37:46.987Z,100354.38
2022-12-31T11:40:32.011Z,100335.84
2022-12-31T11:43:06.745Z,100329.66
2022-12-31T11:46:04.684Z,100326.09
2022-12-31T11:48:38.396Z,100318.13
2022-12-31T11:51:22.906Z,100302.22
2022-12-31T11:54:04.159Z,100283.63
2022-12-31T11:56:37.047Z,100303.03
2022-12-31T11:59:19.067Z,100308.25
2022-12-31T12:01:53.979Z,100291.47
2022-12-31T12:04:24.346Z,100299.34
2022-12-31T12:06:56.511Z,100296.72
2022-12-31T12:09:31.432Z,100299.34
2022-12-31T12:12:05.759Z,100294.94
2022-12-31T12:14:41.601Z,100292.25
2022-12-31T12:17:17.101Z,100279.88
2022-12-31T12:19:48.984Z,100271.94
2022-12-31T12:22:24.515Z,100269.31
2022-12-31T12:24:57.794Z,100272.81
2022-12-31T12:27:30.794Z,100236.91
2022-12-31T12:30:11.783Z,100266.56
2022-12-31T12:32:52.825Z,100259.47
2022-12-31T12:35:26.907Z,100253.31
2022-12-31T12:38:01.296Z,100255.97
2022-12-31T12:40:34.369Z,100252.41
2022-12-31T12:43:04.612Z,100235.59
2022-12-31T12:45:42.331Z,100239.13
2022-12-31T12:48:18.418Z,100248.81
2022-12-31T12:50:50.060Z,100243.50
2022-12-31T12:53:29.418Z,100255.81
2022-12-31T12:56:08.982Z,100248.72
2022-12-31T12:58:48.695Z,100247.84
2022-12-31T13:01:25.599Z,100252.16
2022-12-31T13:04:33.452Z,100243.28
2022-12-31T13:07:05.084Z,100244.97
2022-12-31T13:09:40.824Z,100248.41
2022-12-31T13:12:16.419Z,100242.09
2022-12-31T13:14:50.193Z,100252.59
2022-12-31T13:17:30.596Z,100261.31
2022-12-31T13:20:05.350Z,100254.78
2022-12-31T13:22:41.922Z,100258.22
2022-12-31T13:25:20.801Z,100271.34
2022-12-31T13:27:52.883Z,100264.22
2022-12-31T13:30:24.972Z,100264.09
2022-12-31T13:32:59.690Z,100265.78
2022-12-31T13:35:32.893Z,100263.13
2022-12-31T13:38:06.041Z,100263.13
2022-12-31T13:40:41.956Z,100270.94
2022-12-31T13:43:17.132Z,100270.91
2022-12-31T13:45:48.992Z,100272.72
2022-12-31T13:48:22.951Z,100260.19
2022-12-31T13:50:56.981Z,100263.78
2022-12-31T13:53:31.090Z,100264.59
2022-12-31T13:56:03.858Z,100277.84
2022-12-31T13:58:37.259Z,100271.59
2022-12-31T14:01:13.077Z,100270.72
2022-12-31T14:03:49.818Z,100276.00
2022-12-31T14:06:27.000Z,100269.81
2022-12-31T14:08:57.177Z,100271.56
2022-12-31T14:11:35.320Z,100279.22
2022-12-31T14:14:09.850Z,100287.94
2022-12-31T14:16:45.188Z,100287.03
2022-12-31T14:19:20.222Z,100288.78
2022-12-31T14:21:56.029Z,100287.88
2022-12-31T14:24:33.802Z,100294.00
2022-12-31T14:27:07.123Z,100299.13
2022-12-31T14:29:42.092Z,100304.22
2022-12-31T14:32:17.419Z,100313.94
2022-12-31T14:34:52.535Z,100310.28
2022-12-31T14:37:29.983Z,100296.72
2022-12-31T14:40:07.760Z,100308.22
2022-12-31T14:42:42.499Z,100303.69
2022-12-31T14:45:33.518Z,100307.13
2022-12-31T14:48:07.961Z,100302.59
2022-12-31T14:50:38.431Z,100292.84
2022-12-31T14:53:10.902Z,100288.28
2022-12-31T14:55:41.503Z,100292.34
2022-12-31T14:58:29.621Z,100288.88
2022-12-31T15:01:00.998Z,100283.66
2022-12-31T15:03:44.758Z,100264.88
2022-12-31T15:06:31.549Z,100272.63
2022-12-31T15:09:08.709Z,100279.66
2022-12-31T15:11:49.314Z,100270.88
2022-12-31T15:14:39.330Z,100258.38
2022-12-31T15:17:13.924Z,100256.63
2022-12-31T15:20:01.779Z,100259.28
2022-12-31T15:22:38.636Z,100261.72
2022-12-31T15:25:23.807Z,100267.94
2022-12-31T15:27:55.912Z,100268.94
2022-12-31T15:30:52.942Z,100291.03
2022-12-31T15:33:29.312Z,100272.97
2022-12-31T15:35:59.508Z,100270.25
2022-12-31T15:38:35.294Z,100276.13
2022-12-31T15:41:17.260Z,100285.81
2022-12-31T15:43:50.797Z,100295.44
2022-12-31T15:46:23.219Z,100289.38
2022-12-31T15:49:04.188Z,100297.38
2022-12-31T15:51:45.468Z,100290.00
2022-12-31T15:54:23.079Z,100263.50
2022-12-31T15:56:54.978Z,100278.59
2022-12-31T15:59:26.495Z,100264.34
2022-12-31T16:01:57.280Z,100301.56
2022-12-31T16:04:28.630Z,100283.78
2022-12-31T16:07:00.797Z,100275.78
2022-12-31T16:09:31.999Z,100268.53
2022-12-31T16:12:03.937Z,100281.97
2022-12-31T16:14:36.858Z,100252.69
2022-12-31T16:17:07.209Z,100230.28
2022-12-31T16:19:38.317Z,100245.19
2022-12-31T16:22:10.808Z,100268.44
2022-12-31T16:25:02.704Z,100251.69
2022-12-31T16:27:32.135Z,100245.34
2022-12-31T16:30:04.965Z,100257.47
2022-12-31T16:32:36.224Z,100249.59
2022-12-31T16:35:23.726Z,100278.84
2022-12-31T16:38:11.732Z,100298.19
2022-12-31T16:40:42.638Z,100306.88
2022-12-31T16:43:29.049Z,100302.31
2022-12-31T16:46:02.968Z,100300.53
2022-12-31T16:48:32.675Z,100298.53
2022-12-31T16:51:03.145Z,100292.28
2022-12-31T16:53:36.496Z,100305.53
2022-12-31T16:56:09.110Z,100298.56
2022-12-31T16:58:43.096Z,100302.66
2022-12-31T17:01:15.623Z,100305.13
2022-12-31T17:03:47.562Z,100299.75
2022-12-31T17:06:18.820Z,100307.78
2022-12-31T17:08:51.477Z,100303.16
2022-12-31T17:11:24.590Z,100318.16
2022-12-31T17:13:57.066Z,100310.88
2022-12-31T17:16:27.471Z,100308.09
2022-12-31T17:18:57.247Z,100301.72
2022-12-31T17:21:28.951Z,100290.22
2022-12-31T17:24:02.147Z,100291.31
2022-12-31T17:26:34.003Z,100300.88
2022-12-31T17:29:06.251Z,100304.22
2022-12-31T17:31:37.695Z,100302.47
2022-12-31T17:34:19.313Z,100307.00
2022-12-31T17:36:58.865Z,100302.44
2022-12-31T17:39:29.262Z,100285.63
2022-12-31T17:41:59.621Z,100298.09
2022-12-31T17:44:30.810Z,100307.34
2022-12-31T17:47:01.023Z,100305.53
2022-12-31T17:49:31.618Z,100306.59
2022-12-31T17:52:01.723Z,100319.84
2022-12-31T17:54:31.367Z,100325.06
2022-12-31T17:57:01.552Z,100333.56
2022-12-31T17:59:34.942Z,100350.44
2022-12-31T18:02:07.869Z,100337.00
2022-12-31T18:04:38.680Z,100322.63
2022-12-31T18:07:10.016Z,100339.78
2022-12-31T18:09:41.663Z,100315.91
2022-12-31T18:12:14.954Z,100337.41
2022-12-31T18:14:47.792Z,100331.84
2022-12-31T18:17:18.012Z,100317.03
2022-12-31T18:20:04.801Z,100305.03
2022-12-31T18:22:35.670Z,100314.94
2022-12-31T18:25:06.994Z,100324.78
2022-12-31T18:27:37.563Z,100330.31
2022-12-31T18:30:10.395Z,100340.34
2022-12-31T18:32:41.446Z,100332.25
2022-12-31T18:35:33.267Z,100343.72
2022-12-31T18:38:08.028Z,100354.50
2022-12-31T18:40:41.071Z,100364.28
2022-12-31T18:43:14.572Z,100362.53
2022-12-31T18:45:46.078Z,100363.53
2022-12-31T18:48:16.473Z,100374.19
2022-12-31T18:50:46.633Z,100376.84
2022-12-31T18:53:18.151Z,100391.91
2022-12-31T18:55:49.968Z,100399.97
2022-12-31T18:58:21.432Z,100402.72
2022-12-31T19:00:53.250Z,100401.69
2022-12-31T19:03:25.120Z,100399.97
2022-12-31T19:05:55.459Z,100398.19
2022-12-31T19:08:25.956Z,100405.34
2022-12-31T19:10:56.328Z,100403.59
2022-12-31T19:13:26.890Z,100399.19
2022-12-31T19:15:59.123Z,100405.09
2022-12-31T19:18:29.691Z,100409.47
2022-12-31T19:20:59.881Z,100396.41
2022-12-31T19:23:30.092Z,100378.50
2022-12-31T19:25:59.814Z,100389.34
2022-12-31T19:28:30.190Z,100377.84
2022-12-31T19:31:01.892Z,100378.94
2022-12-31T19:33:32.887Z,100374.34
2022-12-31T19:36:03.351Z,100388.53
2022-12-31T19:38:34.270Z,100377.13
2022-12-31T19:41:04.412Z,100373.59
2022-12-31T19:43:36.914Z,100366.53
2022-12-31T19:46:14.984Z,100377.03
2022-12-31T19:48:46.753Z,100374.38
2022-12-31T19:51:18.420Z,100372.69
2022-12-31T19:53:51.598Z,100388.59
2022-12-31T19:56:23.793Z,100384.28
2022-12-31T19:58:53.842Z,100382.63
2022-12-31T20:01:26.092Z,100391.38
2022-12-31T20:03:56.762Z,100385.94
2022-12-31T20:06:26.675Z,100387.78
2022-12-31T20:08:56.726Z,100381.78
2022-12-31T20:11:27.082Z,100392.44
2022-12-31T20:13:57.143Z,100393.41
2022-12-31T20:16:30.046Z,100374.88
2022-12-31T20:19:00.248Z,100384.81
2022-12-31T20:21:30.428Z,100384.72
2022-12-31T20:24:00.511Z,100398.22
2022-12-31T20:26:30.280Z,100385.75
2022-12-31T20:29:00.327Z,100376.88
2022-12-31T20:31:31.643Z,100375.16
2022-12-31T20:34:01.791Z,100377.00
2022-12-31T20:36:31.638Z,100372.69
2022-12-31T20:39:01.870Z,100359.44
2022-12-31T20:41:32.493Z,100355.00
2022-12-31T20:44:02.602Z,100349.81
2022-12-31T20:46:33.820Z,100351.69
2022-12-31T20:49:05.278Z,100359.63
2022-12-31T20:51:35.735Z,100372.13
2022-12-31T20:54:07.233Z,100372.25
2022-12-31T20:56:38.124Z,100384.63
2022-12-31T20:59:08.763Z,100385.69
2022-12-31T21:02:19.551Z,100401.69
2022-12-31T21:04:30.786Z,100396.28
2022-12-31T21:07:00.649Z,100405.19
2022-12-31T21:09:30.797Z,100404.28
2022-12-31T21:12:18.277Z,100374.28
2022-12-31T21:14:48.419Z,100374.38
2022-12-31T21:17:19.611Z,100369.88
2022-12-31T21:19:49.795Z,100372.69
2022-12-31T21:22:19.443Z,100327.41
2022-12-31T21:24:49.618Z,100374.66
2022-12-31T21:27:19.384Z,100356.03
2022-12-31T21:30:16.956Z,100372.00
2022-12-31T21:32:40.695Z,100386.25
2022-12-31T21:38:01.953Z,100403.34
2022-12-31T21:40:35.262Z,100400.63
2022-12-31T21:43:05.105Z,100391.94
2022-12-31T21:45:35.731Z,100390.16
2022-12-31T21:48:25.279Z,100388.50
2022-12-31T21:50:57.153Z,100372.53
2022-12-31T21:53:34.148Z,100365.28
2022-12-31T21:56:09.227Z,100359.81
2022-12-31T21:58:41.563Z,100361.34
2022-12-31T22:01:39.000Z,100358.56
2022-12-31T22:04:35.301Z,100359.09
2022-12-31T22:07:01.028Z,100346.75
2022-12-31T22:09:31.054Z,100348.50
2022-12-31T22:12:01.644Z,100338.66
2022-12-31T22:14:31.474Z,100329.69
2022-12-31T22:17:01.750Z,100333.19
2022-12-31T22:19:54.663Z,100325.13
2022-12-31T22:22:26.678Z,100331.13
2022-12-31T22:24:56.988Z,100347.16
2022-12-31T22:27:30.035Z,100362.16
2022-12-31T22:30:02.021Z,100361.31
2022-12-31T22:32:32.461Z,100374.63
2022-12-31T22:35:04.972Z,100385.34
2022-12-31T22:37:56.403Z,100392.56
2022-12-31T22:40:25.114Z,100386.25
2022-12-31T22:42:56.337Z,100377.56
2022-12-31T22:45:26.249Z,100366.91
2022-12-31T22:47:56.664Z,100383.44
2022-12-31T22:50:28.057Z,100377.50
2022-12-31T22:52:58.415Z,100377.41
2022-12-31T22:55:28.749Z,100366.84
2022-12-31T22:57:58.929Z,100365.09
2022-12-31T23:00:38.833Z,100358.00
2022-12-31T23:03:09.550Z,100359.84
2022-12-31T23:05:40.804Z,100366.91
2022-12-31T23:08:20.577Z,100357.03
2022-12-31T23:11:02.153Z,100356.28
2022-12-31T23:13:51.478Z,100358.97
2022-12-31T23:16:38.511Z,100353.59
2022-12-31T23:19:25.922Z,100364.34
2022-12-31T23:22:14.668Z,100361.47
2022-12-31T23:24:45.152Z,100364.25
2022-12-31T23:27:15.502Z,100364.97
2022-12-31T23:29:47.499Z,100375.63
2022-12-31T23:32:20.557Z,100385.38
2022-12-31T23:34:50.813Z,100370.34
2022-12-31T23:37:22.489Z,100384.63
2022-12-31T23:39:55.032Z,100390.03
2022-12-31T23:42:24.771Z,100378.78
2022-12-31T23:44:54.983Z,100369.97
2022-12-31T23:47:25.008Z,100383.19
2022-12-31T23:49:55.434Z,100384.19
2022-12-31T23:52:26.953Z,100376.28
2022-12-31T23:54:57.567Z,100372.53
2022-12-31T23:57:27.357Z,100379.69
2022-12-31T23:59:57.667Z,100370.91
